sensor_id;sensor_type;location;lat;lon;timestamp;temperature;humidity
5940;DHT22;2995;-31.998;115.906;2024-02-15T00:01:06;32.90;63.30
5940;DHT22;2995;-31.998;115.906;2024-02-15T00:03:37;33.30;63.70
5940;DHT22;2995;-31.998;115.906;2024-02-15T00:06:09;33.40;62.70
5940;DHT22;2995;-31.998;115.906;2024-02-15T00:08:40;33.30;62.60
5940;DHT22;2995;-31.998;115.906;2024-02-15T00:11:12;34.10;62.30
5940;DHT22;2995;-31.998;115.906;2024-02-15T00:13:46;34.80;62.20
5940;DHT22;2995;-31.998;115.906;2024-02-15T00:16:18;35.20;61.10
5940;DHT22;2995;-31.998;115.906;2024-02-15T00:18:49;35.00;62.10
5940;DHT22;2995;-31.998;115.906;2024-02-15T00:21:20;35.00;62.10
5940;DHT22;2995;-31.998;115.906;2024-02-15T00:23:52;35.50;61.50
5940;DHT22;2995;-31.998;115.906;2024-02-15T00:26:24;35.10;61.50
5940;DHT22;2995;-31.998;115.906;2024-02-15T00:28:58;34.30;61.60
5940;DHT22;2995;-31.998;115.906;2024-02-15T00:31:29;35.10;61.30
5940;DHT22;2995;-31.998;115.906;2024-02-15T00:36:30;37.20;59.60
5940;DHT22;2995;-31.998;115.906;2024-02-15T00:39:02;38.60;58.50
5940;DHT22;2995;-31.998;115.906;2024-02-15T00:41:34;36.70;57.90
5940;DHT22;2995;-31.998;115.906;2024-02-15T00:44:07;35.00;60.60
5940;DHT22;2995;-31.998;115.906;2024-02-15T00:46:39;35.30;60.50
5940;DHT22;2995;-31.998;115.906;2024-02-15T00:49:11;35.20;60.50
5940;DHT22;2995;-31.998;115.906;2024-02-15T00:51:42;36.10;59.60
5940;DHT22;2995;-31.998;115.906;2024-02-15T00:54:13;35.50;60.50
5940;DHT22;2995;-31.998;115.906;2024-02-15T00:56:44;36.10;59.80
5940;DHT22;2995;-31.998;115.906;2024-02-15T00:59:18;36.30;60.10
5940;DHT22;2995;-31.998;115.906;2024-02-15T01:01:49;36.70;59.20
5940;DHT22;2995;-31.998;115.906;2024-02-15T01:04:21;37.00;58.90
5940;DHT22;2995;-31.998;115.906;2024-02-15T01:06:52;37.10;59.30
5940;DHT22;2995;-31.998;115.906;2024-02-15T01:09:24;37.70;58.50
5940;DHT22;2995;-31.998;115.906;2024-02-15T01:11:55;38.10;58.70
5940;DHT22;2995;-31.998;115.906;2024-02-15T01:14:28;38.40;58.20
5940;DHT22;2995;-31.998;115.906;2024-02-15T01:16:59;38.20;57.70
5940;DHT22;2995;-31.998;115.906;2024-02-15T01:19:31;39.00;57.70
5940;DHT22;2995;-31.998;115.906;2024-02-15T01:22:02;38.40;57.80
5940;DHT22;2995;-31.998;115.906;2024-02-15T01:24:34;38.80;57.40
5940;DHT22;2995;-31.998;115.906;2024-02-15T01:27:05;39.40;57.20
5940;DHT22;2995;-31.998;115.906;2024-02-15T01:29:39;38.80;57.10
5940;DHT22;2995;-31.998;115.906;2024-02-15T01:32:11;38.60;57.30
5940;DHT22;2995;-31.998;115.906;2024-02-15T01:34:42;38.20;57.30
5940;DHT22;2995;-31.998;115.906;2024-02-15T01:37:13;38.20;57.20
5940;DHT22;2995;-31.998;115.906;2024-02-15T01:39:44;37.70;58.30
5940;DHT22;2995;-31.998;115.906;2024-02-15T01:42:16;37.70;58.10
5940;DHT22;2995;-31.998;115.906;2024-02-15T01:44:49;37.10;58.00
5940;DHT22;2995;-31.998;115.906;2024-02-15T01:47:21;36.90;58.00
5940;DHT22;2995;-31.998;115.906;2024-02-15T01:49:54;37.00;57.70
5940;DHT22;2995;-31.998;115.906;2024-02-15T01:52:25;36.20;58.90
5940;DHT22;2995;-31.998;115.906;2024-02-15T01:54:58;36.10;58.90
5940;DHT22;2995;-31.998;115.906;2024-02-15T01:57:31;35.20;59.00
5940;DHT22;2995;-31.998;115.906;2024-02-15T02:00:05;34.90;58.90
5940;DHT22;2995;-31.998;115.906;2024-02-15T02:02:39;35.10;58.90
5940;DHT22;2995;-31.998;115.906;2024-02-15T02:05:12;34.80;59.60
5940;DHT22;2995;-31.998;115.906;2024-02-15T02:07:43;35.20;59.40
5940;DHT22;2995;-31.998;115.906;2024-02-15T02:10:15;35.60;59.30
5940;DHT22;2995;-31.998;115.906;2024-02-15T02:12:47;35.90;58.70
5940;DHT22;2995;-31.998;115.906;2024-02-15T02:15:20;35.80;59.40
5940;DHT22;2995;-31.998;115.906;2024-02-15T02:17:52;35.20;59.30
5940;DHT22;2995;-31.998;115.906;2024-02-15T02:20:23;35.90;59.30
5940;DHT22;2995;-31.998;115.906;2024-02-15T02:22:57;36.40;58.50
5940;DHT22;2995;-31.998;115.906;2024-02-15T02:25:37;36.70;58.10
5940;DHT22;2995;-31.998;115.906;2024-02-15T02:28:08;37.00;57.00
5940;DHT22;2995;-31.998;115.906;2024-02-15T02:30:40;36.90;57.10
5940;DHT22;2995;-31.998;115.906;2024-02-15T02:33:14;37.20;57.60
5940;DHT22;2995;-31.998;115.906;2024-02-15T02:35:47;37.50;56.90
5940;DHT22;2995;-31.998;115.906;2024-02-15T02:38:18;37.40;56.90
5940;DHT22;2995;-31.998;115.906;2024-02-15T02:40:51;37.20;56.50
5940;DHT22;2995;-31.998;115.906;2024-02-15T02:43:23;37.50;56.30
5940;DHT22;2995;-31.998;115.906;2024-02-15T02:45:54;37.70;55.80
5940;DHT22;2995;-31.998;115.906;2024-02-15T02:48:25;37.90;55.80
5940;DHT22;2995;-31.998;115.906;2024-02-15T02:50:56;37.80;55.80
5940;DHT22;2995;-31.998;115.906;2024-02-15T02:53:28;37.70;56.10
5940;DHT22;2995;-31.998;115.906;2024-02-15T02:56:01;37.90;56.10
5940;DHT22;2995;-31.998;115.906;2024-02-15T02:58:33;37.60;56.30
5940;DHT22;2995;-31.998;115.906;2024-02-15T03:01:04;37.40;56.60
5940;DHT22;2995;-31.998;115.906;2024-02-15T03:03:36;37.80;56.60
5940;DHT22;2995;-31.998;115.906;2024-02-15T03:06:07;37.90;56.70
5940;DHT22;2995;-31.998;115.906;2024-02-15T03:08:39;38.40;55.70
5940;DHT22;2995;-31.998;115.906;2024-02-15T03:11:13;38.20;55.80
5940;DHT22;2995;-31.998;115.906;2024-02-15T03:13:45;37.90;55.80
5940;DHT22;2995;-31.998;115.906;2024-02-15T03:16:17;38.30;55.60
5940;DHT22;2995;-31.998;115.906;2024-02-15T03:18:48;38.70;54.90
5940;DHT22;2995;-31.998;115.906;2024-02-15T03:21:20;38.30;55.10
5940;DHT22;2995;-31.998;115.906;2024-02-15T03:23:51;38.30;55.70
5940;DHT22;2995;-31.998;115.906;2024-02-15T03:26:30;38.40;56.40
5940;DHT22;2995;-31.998;115.906;2024-02-15T03:29:04;38.90;55.90
5940;DHT22;2995;-31.998;115.906;2024-02-15T03:31:36;39.00;55.20
5940;DHT22;2995;-31.998;115.906;2024-02-15T03:34:07;39.00;55.50
5940;DHT22;2995;-31.998;115.906;2024-02-15T03:36:42;38.50;54.90
5940;DHT22;2995;-31.998;115.906;2024-02-15T03:39:14;38.90;55.00
5940;DHT22;2995;-31.998;115.906;2024-02-15T03:41:47;39.10;54.60
5940;DHT22;2995;-31.998;115.906;2024-02-15T03:44:19;39.40;54.30
5940;DHT22;2995;-31.998;115.906;2024-02-15T03:46:50;39.60;54.20
5940;DHT22;2995;-31.998;115.906;2024-02-15T03:49:21;39.50;54.80
5940;DHT22;2995;-31.998;115.906;2024-02-15T03:51:52;39.60;53.40
5940;DHT22;2995;-31.998;115.906;2024-02-15T03:54:24;39.60;53.50
5940;DHT22;2995;-31.998;115.906;2024-02-15T03:56:57;39.90;53.70
5940;DHT22;2995;-31.998;115.906;2024-02-15T03:59:28;40.10;54.20
5940;DHT22;2995;-31.998;115.906;2024-02-15T04:02:00;40.00;54.10
5940;DHT22;2995;-31.998;115.906;2024-02-15T04:04:31;40.30;53.60
5940;DHT22;2995;-31.998;115.906;2024-02-15T04:07:04;40.50;53.50
5940;DHT22;2995;-31.998;115.906;2024-02-15T04:09:36;39.90;53.10
5940;DHT22;2995;-31.998;115.906;2024-02-15T04:12:09;39.70;54.20
5940;DHT22;2995;-31.998;115.906;2024-02-15T04:14:41;40.00;52.70
5940;DHT22;2995;-31.998;115.906;2024-02-15T04:17:13;40.20;53.50
5940;DHT22;2995;-31.998;115.906;2024-02-15T04:19:45;39.80;52.40
5940;DHT22;2995;-31.998;115.906;2024-02-15T04:22:18;40.00;52.80
5940;DHT22;2995;-31.998;115.906;2024-02-15T04:24:49;40.10;52.40
5940;DHT22;2995;-31.998;115.906;2024-02-15T04:27:23;39.80;53.00
5940;DHT22;2995;-31.998;115.906;2024-02-15T04:29:54;39.90;52.90
5940;DHT22;2995;-31.998;115.906;2024-02-15T04:32:25;40.20;52.60
5940;DHT22;2995;-31.998;115.906;2024-02-15T04:34:57;40.70;52.40
5940;DHT22;2995;-31.998;115.906;2024-02-15T04:37:28;40.90;51.70
5940;DHT22;2995;-31.998;115.906;2024-02-15T04:40:00;40.70;51.50
5940;DHT22;2995;-31.998;115.906;2024-02-15T04:42:38;40.90;51.70
5940;DHT22;2995;-31.998;115.906;2024-02-15T04:45:11;41.30;51.60
5940;DHT22;2995;-31.998;115.906;2024-02-15T04:47:43;41.30;51.70
5940;DHT22;2995;-31.998;115.906;2024-02-15T04:50:18;41.40;51.70
5940;DHT22;2995;-31.998;115.906;2024-02-15T04:52:49;41.50;51.60
5940;DHT22;2995;-31.998;115.906;2024-02-15T04:55:21;41.80;51.40
5940;DHT22;2995;-31.998;115.906;2024-02-15T04:57:56;41.80;50.90
5940;DHT22;2995;-31.998;115.906;2024-02-15T05:00:28;41.90;51.20
5940;DHT22;2995;-31.998;115.906;2024-02-15T05:02:59;41.80;50.10
5940;DHT22;2995;-31.998;115.906;2024-02-15T05:05:30;41.60;50.10
5940;DHT22;2995;-31.998;115.906;2024-02-15T05:08:02;42.00;49.90
5940;DHT22;2995;-31.998;115.906;2024-02-15T05:10:33;41.90;49.10
5940;DHT22;2995;-31.998;115.906;2024-02-15T05:13:06;41.70;49.30
5940;DHT22;2995;-31.998;115.906;2024-02-15T05:15:42;41.40;49.00
5940;DHT22;2995;-31.998;115.906;2024-02-15T05:18:14;41.60;49.30
5940;DHT22;2995;-31.998;115.906;2024-02-15T05:20:46;42.00;49.50
5940;DHT22;2995;-31.998;115.906;2024-02-15T05:23:18;42.20;49.60
5940;DHT22;2995;-31.998;115.906;2024-02-15T05:25:50;42.30;49.60
5940;DHT22;2995;-31.998;115.906;2024-02-15T05:28:24;42.50;49.40
5940;DHT22;2995;-31.998;115.906;2024-02-15T05:31:10;42.30;49.10
5940;DHT22;2995;-31.998;115.906;2024-02-15T05:33:42;42.20;48.90
5940;DHT22;2995;-31.998;115.906;2024-02-15T05:36:16;42.30;48.70
5940;DHT22;2995;-31.998;115.906;2024-02-15T05:38:49;42.20;48.70
5940;DHT22;2995;-31.998;115.906;2024-02-15T05:41:21;42.40;48.70
5940;DHT22;2995;-31.998;115.906;2024-02-15T05:43:54;42.40;48.50
5940;DHT22;2995;-31.998;115.906;2024-02-15T05:46:26;42.30;48.50
5940;DHT22;2995;-31.998;115.906;2024-02-15T05:48:58;42.00;48.40
5940;DHT22;2995;-31.998;115.906;2024-02-15T05:51:30;41.60;48.10
5940;DHT22;2995;-31.998;115.906;2024-02-15T05:54:02;41.80;48.80
5940;DHT22;2995;-31.998;115.906;2024-02-15T05:56:33;42.00;48.40
5940;DHT22;2995;-31.998;115.906;2024-02-15T05:59:06;42.40;48.70
5940;DHT22;2995;-31.998;115.906;2024-02-15T06:01:38;42.80;48.20
5940;DHT22;2995;-31.998;115.906;2024-02-15T06:04:10;42.90;47.60
5940;DHT22;2995;-31.998;115.906;2024-02-15T06:06:42;42.70;48.50
5940;DHT22;2995;-31.998;115.906;2024-02-15T06:09:18;42.80;48.10
5940;DHT22;2995;-31.998;115.906;2024-02-15T06:11:53;42.70;47.50
5940;DHT22;2995;-31.998;115.906;2024-02-15T06:14:27;42.50;47.30
5940;DHT22;2995;-31.998;115.906;2024-02-15T06:16:59;42.70;47.70
5940;DHT22;2995;-31.998;115.906;2024-02-15T06:19:30;42.50;47.30
5940;DHT22;2995;-31.998;115.906;2024-02-15T06:22:02;42.40;47.60
5940;DHT22;2995;-31.998;115.906;2024-02-15T06:24:34;42.30;47.30
5940;DHT22;2995;-31.998;115.906;2024-02-15T06:27:06;42.30;48.20
5940;DHT22;2995;-31.998;115.906;2024-02-15T06:29:39;42.30;47.60
5940;DHT22;2995;-31.998;115.906;2024-02-15T06:32:26;42.30;47.50
5940;DHT22;2995;-31.998;115.906;2024-02-15T06:35:16;42.30;46.90
5940;DHT22;2995;-31.998;115.906;2024-02-15T06:38:03;42.20;46.80
5940;DHT22;2995;-31.998;115.906;2024-02-15T06:40:50;42.40;47.40
5940;DHT22;2995;-31.998;115.906;2024-02-15T06:43:22;42.70;47.60
5940;DHT22;2995;-31.998;115.906;2024-02-15T06:45:55;42.90;47.30
5940;DHT22;2995;-31.998;115.906;2024-02-15T06:48:27;43.00;47.30
5940;DHT22;2995;-31.998;115.906;2024-02-15T06:50:59;43.10;46.80
5940;DHT22;2995;-31.998;115.906;2024-02-15T06:53:31;43.20;47.00
5940;DHT22;2995;-31.998;115.906;2024-02-15T06:56:02;43.10;46.60
5940;DHT22;2995;-31.998;115.906;2024-02-15T06:58:34;43.10;47.40
5940;DHT22;2995;-31.998;115.906;2024-02-15T07:01:08;42.80;46.70
5940;DHT22;2995;-31.998;115.906;2024-02-15T07:03:41;42.90;46.90
5940;DHT22;2995;-31.998;115.906;2024-02-15T07:06:12;42.90;46.70
5940;DHT22;2995;-31.998;115.906;2024-02-15T07:08:44;43.00;46.30
5940;DHT22;2995;-31.998;115.906;2024-02-15T07:11:15;42.80;46.50
5940;DHT22;2995;-31.998;115.906;2024-02-15T07:13:47;42.80;46.10
5940;DHT22;2995;-31.998;115.906;2024-02-15T07:16:23;42.70;46.70
5940;DHT22;2995;-31.998;115.906;2024-02-15T07:18:55;42.70;47.00
5940;DHT22;2995;-31.998;115.906;2024-02-15T07:21:26;42.60;47.70
5940;DHT22;2995;-31.998;115.906;2024-02-15T07:23:59;42.50;47.50
5940;DHT22;2995;-31.998;115.906;2024-02-15T07:26:31;42.50;48.30
5940;DHT22;2995;-31.998;115.906;2024-02-15T07:29:03;42.60;48.70
5940;DHT22;2995;-31.998;115.906;2024-02-15T07:31:38;42.30;49.00
5940;DHT22;2995;-31.998;115.906;2024-02-15T07:34:09;42.30;49.30
5940;DHT22;2995;-31.998;115.906;2024-02-15T07:36:41;42.30;49.40
5940;DHT22;2995;-31.998;115.906;2024-02-15T07:39:13;42.30;49.60
5940;DHT22;2995;-31.998;115.906;2024-02-15T07:41:51;42.20;48.80
5940;DHT22;2995;-31.998;115.906;2024-02-15T07:44:22;42.00;48.90
5940;DHT22;2995;-31.998;115.906;2024-02-15T07:47:00;41.80;48.70
5940;DHT22;2995;-31.998;115.906;2024-02-15T07:49:33;41.70;48.70
5940;DHT22;2995;-31.998;115.906;2024-02-15T07:52:04;41.60;48.70
5940;DHT22;2995;-31.998;115.906;2024-02-15T07:54:37;41.50;48.10
5940;DHT22;2995;-31.998;115.906;2024-02-15T07:57:08;41.30;48.10
5940;DHT22;2995;-31.998;115.906;2024-02-15T07:59:39;41.30;48.10
5940;DHT22;2995;-31.998;115.906;2024-02-15T08:02:12;41.20;48.80
5940;DHT22;2995;-31.998;115.906;2024-02-15T08:04:46;41.30;49.20
5940;DHT22;2995;-31.998;115.906;2024-02-15T08:07:17;41.20;49.30
5940;DHT22;2995;-31.998;115.906;2024-02-15T08:09:49;41.00;49.50
5940;DHT22;2995;-31.998;115.906;2024-02-15T08:12:21;41.00;49.80
5940;DHT22;2995;-31.998;115.906;2024-02-15T08:14:53;41.00;49.80
5940;DHT22;2995;-31.998;115.906;2024-02-15T08:17:28;41.00;48.90
5940;DHT22;2995;-31.998;115.906;2024-02-15T08:19:59;40.90;49.80
5940;DHT22;2995;-31.998;115.906;2024-02-15T08:22:31;40.90;49.10
5940;DHT22;2995;-31.998;115.906;2024-02-15T08:25:02;40.80;49.50
5940;DHT22;2995;-31.998;115.906;2024-02-15T08:27:33;40.60;49.90
5940;DHT22;2995;-31.998;115.906;2024-02-15T08:30:10;40.30;49.80
5940;DHT22;2995;-31.998;115.906;2024-02-15T08:32:43;40.10;49.90
5940;DHT22;2995;-31.998;115.906;2024-02-15T08:35:16;40.10;49.40
5940;DHT22;2995;-31.998;115.906;2024-02-15T08:37:47;40.10;49.60
5940;DHT22;2995;-31.998;115.906;2024-02-15T08:40:19;40.20;49.50
5940;DHT22;2995;-31.998;115.906;2024-02-15T08:42:53;40.10;49.20
5940;DHT22;2995;-31.998;115.906;2024-02-15T08:45:24;40.10;49.40
5940;DHT22;2995;-31.998;115.906;2024-02-15T08:47:58;40.00;49.50
5940;DHT22;2995;-31.998;115.906;2024-02-15T08:50:32;40.00;49.60
5940;DHT22;2995;-31.998;115.906;2024-02-15T08:53:03;39.90;49.60
5940;DHT22;2995;-31.998;115.906;2024-02-15T08:55:35;39.70;49.80
5940;DHT22;2995;-31.998;115.906;2024-02-15T08:58:06;39.80;50.10
5940;DHT22;2995;-31.998;115.906;2024-02-15T09:00:39;39.60;50.00
5940;DHT22;2995;-31.998;115.906;2024-02-15T09:03:14;39.40;50.30
5940;DHT22;2995;-31.998;115.906;2024-02-15T09:05:46;39.40;50.60
5940;DHT22;2995;-31.998;115.906;2024-02-15T09:08:18;39.20;50.20
5940;DHT22;2995;-31.998;115.906;2024-02-15T09:10:51;39.20;49.90
5940;DHT22;2995;-31.998;115.906;2024-02-15T09:13:22;39.10;50.10
5940;DHT22;2995;-31.998;115.906;2024-02-15T09:15:53;39.10;49.80
5940;DHT22;2995;-31.998;115.906;2024-02-15T09:18:27;38.90;50.00
5940;DHT22;2995;-31.998;115.906;2024-02-15T09:20:58;38.90;50.30
5940;DHT22;2995;-31.998;115.906;2024-02-15T09:23:30;38.70;50.50
5940;DHT22;2995;-31.998;115.906;2024-02-15T09:26:01;38.70;50.80
5940;DHT22;2995;-31.998;115.906;2024-02-15T09:28:32;38.50;50.40
5940;DHT22;2995;-31.998;115.906;2024-02-15T09:31:03;38.40;50.80
5940;DHT22;2995;-31.998;115.906;2024-02-15T09:33:36;38.20;50.90
5940;DHT22;2995;-31.998;115.906;2024-02-15T09:36:08;38.20;51.00
5940;DHT22;2995;-31.998;115.906;2024-02-15T09:38:40;38.20;51.20
5940;DHT22;2995;-31.998;115.906;2024-02-15T09:41:11;38.10;51.30
5940;DHT22;2995;-31.998;115.906;2024-02-15T09:43:42;37.90;51.50
5940;DHT22;2995;-31.998;115.906;2024-02-15T09:46:14;37.80;51.40
5940;DHT22;2995;-31.998;115.906;2024-02-15T09:48:50;37.80;51.70
5940;DHT22;2995;-31.998;115.906;2024-02-15T09:51:27;37.80;52.10
5940;DHT22;2995;-31.998;115.906;2024-02-15T09:53:59;37.70;52.30
5940;DHT22;2995;-31.998;115.906;2024-02-15T09:56:32;37.70;51.90
5940;DHT22;2995;-31.998;115.906;2024-02-15T09:59:05;37.70;52.10
5940;DHT22;2995;-31.998;115.906;2024-02-15T10:01:39;37.60;52.20
5940;DHT22;2995;-31.998;115.906;2024-02-15T10:04:13;37.30;52.10
5940;DHT22;2995;-31.998;115.906;2024-02-15T10:06:44;37.20;52.30
5940;DHT22;2995;-31.998;115.906;2024-02-15T10:09:29;37.10;52.40
5940;DHT22;2995;-31.998;115.906;2024-02-15T10:12:01;37.00;52.40
5940;DHT22;2995;-31.998;115.906;2024-02-15T10:14:34;36.90;52.70
5940;DHT22;2995;-31.998;115.906;2024-02-15T10:17:09;36.70;53.10
5940;DHT22;2995;-31.998;115.906;2024-02-15T10:19:43;36.50;53.60
5940;DHT22;2995;-31.998;115.906;2024-02-15T10:22:15;36.60;53.80
5940;DHT22;2995;-31.998;115.906;2024-02-15T10:24:46;36.50;54.60
5940;DHT22;2995;-31.998;115.906;2024-02-15T10:27:24;36.40;54.10
5940;DHT22;2995;-31.998;115.906;2024-02-15T10:30:15;36.20;54.70
5940;DHT22;2995;-31.998;115.906;2024-02-15T10:32:47;36.00;55.20
5940;DHT22;2995;-31.998;115.906;2024-02-15T10:35:23;36.00;55.30
5940;DHT22;2995;-31.998;115.906;2024-02-15T10:38:06;35.90;55.80
5940;DHT22;2995;-31.998;115.906;2024-02-15T10:40:38;35.70;57.10
5940;DHT22;2995;-31.998;115.906;2024-02-15T10:43:11;35.50;57.80
5940;DHT22;2995;-31.998;115.906;2024-02-15T10:45:42;35.30;58.60
5940;DHT22;2995;-31.998;115.906;2024-02-15T10:48:14;35.30;58.90
5940;DHT22;2995;-31.998;115.906;2024-02-15T10:50:48;35.20;59.70
5940;DHT22;2995;-31.998;115.906;2024-02-15T10:53:27;35.00;61.20
5940;DHT22;2995;-31.998;115.906;2024-02-15T10:56:05;34.80;62.20
5940;DHT22;2995;-31.998;115.906;2024-02-15T10:58:44;34.60;63.00
5940;DHT22;2995;-31.998;115.906;2024-02-15T11:01:18;34.50;62.80
5940;DHT22;2995;-31.998;115.906;2024-02-15T11:03:55;34.20;64.20
5940;DHT22;2995;-31.998;115.906;2024-02-15T11:06:31;34.00;64.90
5940;DHT22;2995;-31.998;115.906;2024-02-15T11:09:04;33.70;64.80
5940;DHT22;2995;-31.998;115.906;2024-02-15T11:11:36;33.70;65.00
5940;DHT22;2995;-31.998;115.906;2024-02-15T11:14:27;33.50;66.10
5940;DHT22;2995;-31.998;115.906;2024-02-15T11:17:00;33.20;68.00
5940;DHT22;2995;-31.998;115.906;2024-02-15T11:19:50;32.90;68.70
5940;DHT22;2995;-31.998;115.906;2024-02-15T11:22:27;32.70;68.90
5940;DHT22;2995;-31.998;115.906;2024-02-15T11:24:58;32.70;69.30
5940;DHT22;2995;-31.998;115.906;2024-02-15T11:27:30;32.50;69.70
5940;DHT22;2995;-31.998;115.906;2024-02-15T11:30:02;32.40;70.40
5940;DHT22;2995;-31.998;115.906;2024-02-15T11:32:41;32.20;70.60
5940;DHT22;2995;-31.998;115.906;2024-02-15T11:35:16;31.90;70.40
5940;DHT22;2995;-31.998;115.906;2024-02-15T11:37:57;32.00;70.30
5940;DHT22;2995;-31.998;115.906;2024-02-15T11:40:28;32.00;69.30
5940;DHT22;2995;-31.998;115.906;2024-02-15T11:43:00;31.90;69.70
5940;DHT22;2995;-31.998;115.906;2024-02-15T11:45:32;31.90;70.20
5940;DHT22;2995;-31.998;115.906;2024-02-15T11:48:10;32.00;70.20
5940;DHT22;2995;-31.998;115.906;2024-02-15T11:50:41;31.80;70.20
5940;DHT22;2995;-31.998;115.906;2024-02-15T11:53:14;31.70;70.60
5940;DHT22;2995;-31.998;115.906;2024-02-15T11:55:46;31.60;70.60
5940;DHT22;2995;-31.998;115.906;2024-02-15T11:58:18;31.50;70.60
5940;DHT22;2995;-31.998;115.906;2024-02-15T12:01:00;31.50;70.40
5940;DHT22;2995;-31.998;115.906;2024-02-15T12:03:47;31.40;70.30
5940;DHT22;2995;-31.998;115.906;2024-02-15T12:06:47;31.30;70.60
5940;DHT22;2995;-31.998;115.906;2024-02-15T12:09:45;31.00;71.80
5940;DHT22;2995;-31.998;115.906;2024-02-15T12:12:35;31.10;71.40
5940;DHT22;2995;-31.998;115.906;2024-02-15T12:15:21;31.00;71.80
5940;DHT22;2995;-31.998;115.906;2024-02-15T12:18:18;31.10;72.00
5940;DHT22;2995;-31.998;115.906;2024-02-15T12:21:07;31.30;71.90
5940;DHT22;2995;-31.998;115.906;2024-02-15T12:23:40;31.10;73.10
5940;DHT22;2995;-31.998;115.906;2024-02-15T12:26:18;30.90;73.10
5940;DHT22;2995;-31.998;115.906;2024-02-15T12:28:54;30.80;74.30
5940;DHT22;2995;-31.998;115.906;2024-02-15T12:31:26;30.80;75.00
5940;DHT22;2995;-31.998;115.906;2024-02-15T12:34:04;30.80;75.00
5940;DHT22;2995;-31.998;115.906;2024-02-15T12:36:37;30.70;76.10
5940;DHT22;2995;-31.998;115.906;2024-02-15T12:39:10;30.40;77.10
5940;DHT22;2995;-31.998;115.906;2024-02-15T12:41:51;30.10;78.00
5940;DHT22;2995;-31.998;115.906;2024-02-15T12:44:22;30.10;78.50
5940;DHT22;2995;-31.998;115.906;2024-02-15T12:46:58;30.10;79.30
5940;DHT22;2995;-31.998;115.906;2024-02-15T12:49:31;30.20;79.50
5940;DHT22;2995;-31.998;115.906;2024-02-15T12:52:38;30.10;80.20
5940;DHT22;2995;-31.998;115.906;2024-02-15T12:55:15;30.10;80.50
5940;DHT22;2995;-31.998;115.906;2024-02-15T12:57:50;30.20;81.40
5940;DHT22;2995;-31.998;115.906;2024-02-15T13:00:24;30.10;82.40
5940;DHT22;2995;-31.998;115.906;2024-02-15T13:02:57;30.10;83.10
5940;DHT22;2995;-31.998;115.906;2024-02-15T13:05:31;30.10;84.20
5940;DHT22;2995;-31.998;115.906;2024-02-15T13:08:04;29.90;84.80
5940;DHT22;2995;-31.998;115.906;2024-02-15T13:10:38;29.80;86.60
5940;DHT22;2995;-31.998;115.906;2024-02-15T13:13:11;29.80;86.30
5940;DHT22;2995;-31.998;115.906;2024-02-15T13:15:45;30.00;85.90
5940;DHT22;2995;-31.998;115.906;2024-02-15T13:18:16;30.00;86.80
5940;DHT22;2995;-31.998;115.906;2024-02-15T13:20:47;29.90;88.00
5940;DHT22;2995;-31.998;115.906;2024-02-15T13:23:20;30.10;88.30
5940;DHT22;2995;-31.998;115.906;2024-02-15T13:25:53;30.30;88.60
5940;DHT22;2995;-31.998;115.906;2024-02-15T13:28:28;30.10;90.00
5940;DHT22;2995;-31.998;115.906;2024-02-15T13:30:59;30.00;89.50
5940;DHT22;2995;-31.998;115.906;2024-02-15T13:33:31;30.00;90.10
5940;DHT22;2995;-31.998;115.906;2024-02-15T13:36:02;29.90;90.50
5940;DHT22;2995;-31.998;115.906;2024-02-15T13:38:35;30.00;90.60
5940;DHT22;2995;-31.998;115.906;2024-02-15T13:41:06;30.00;91.10
5940;DHT22;2995;-31.998;115.906;2024-02-15T13:43:39;29.90;91.30
5940;DHT22;2995;-31.998;115.906;2024-02-15T13:46:10;29.90;92.10
5940;DHT22;2995;-31.998;115.906;2024-02-15T13:48:41;29.80;92.50
5940;DHT22;2995;-31.998;115.906;2024-02-15T13:51:13;29.70;93.70
5940;DHT22;2995;-31.998;115.906;2024-02-15T13:53:44;29.70;94.50
5940;DHT22;2995;-31.998;115.906;2024-02-15T13:56:15;29.60;95.20
5940;DHT22;2995;-31.998;115.906;2024-02-15T13:59:05;29.40;96.20
5940;DHT22;2995;-31.998;115.906;2024-02-15T14:01:37;29.20;97.40
5940;DHT22;2995;-31.998;115.906;2024-02-15T14:04:13;29.20;98.70
5940;DHT22;2995;-31.998;115.906;2024-02-15T14:06:44;29.30;99.90
5940;DHT22;2995;-31.998;115.906;2024-02-15T14:09:16;29.00;99.90
5940;DHT22;2995;-31.998;115.906;2024-02-15T14:11:48;28.50;99.90
5940;DHT22;2995;-31.998;115.906;2024-02-15T14:14:21;28.30;99.90
5940;DHT22;2995;-31.998;115.906;2024-02-15T14:16:53;28.30;99.90
5940;DHT22;2995;-31.998;115.906;2024-02-15T14:19:25;28.30;99.90
5940;DHT22;2995;-31.998;115.906;2024-02-15T14:21:56;28.10;99.90
5940;DHT22;2995;-31.998;115.906;2024-02-15T14:24:29;28.30;99.90
5940;DHT22;2995;-31.998;115.906;2024-02-15T14:27:01;28.10;99.90
5940;DHT22;2995;-31.998;115.906;2024-02-15T14:29:35;28.00;99.90
5940;DHT22;2995;-31.998;115.906;2024-02-15T14:32:13;28.00;99.90
5940;DHT22;2995;-31.998;115.906;2024-02-15T14:34:59;27.90;99.90
5940;DHT22;2995;-31.998;115.906;2024-02-15T14:37:31;27.90;99.90
5940;DHT22;2995;-31.998;115.906;2024-02-15T14:40:02;27.80;99.90
5940;DHT22;2995;-31.998;115.906;2024-02-15T14:42:35;27.80;99.90
5940;DHT22;2995;-31.998;115.906;2024-02-15T14:45:09;27.70;99.90
5940;DHT22;2995;-31.998;115.906;2024-02-15T14:47:40;27.70;99.90
5940;DHT22;2995;-31.998;115.906;2024-02-15T14:50:12;27.60;99.90
5940;DHT22;2995;-31.998;115.906;2024-02-15T14:52:43;27.50;99.90
5940;DHT22;2995;-31.998;115.906;2024-02-15T14:55:14;27.40;99.90
5940;DHT22;2995;-31.998;115.906;2024-02-15T14:57:47;27.40;99.90
5940;DHT22;2995;-31.998;115.906;2024-02-15T15:00:20;27.30;99.90
5940;DHT22;2995;-31.998;115.906;2024-02-15T15:02:59;27.20;99.90
5940;DHT22;2995;-31.998;115.906;2024-02-15T15:05:31;27.20;99.90
5940;DHT22;2995;-31.998;115.906;2024-02-15T15:08:18;27.10;99.90
5940;DHT22;2995;-31.998;115.906;2024-02-15T15:11:05;27.10;99.90
5940;DHT22;2995;-31.998;115.906;2024-02-15T15:13:51;27.20;99.90
5940;DHT22;2995;-31.998;115.906;2024-02-15T15:16:25;27.20;99.90
5940;DHT22;2995;-31.998;115.906;2024-02-15T15:18:58;27.10;99.90
5940;DHT22;2995;-31.998;115.906;2024-02-15T15:21:29;27.00;99.90
5940;DHT22;2995;-31.998;115.906;2024-02-15T15:24:00;26.90;99.90
5940;DHT22;2995;-31.998;115.906;2024-02-15T15:26:31;26.90;99.90
5940;DHT22;2995;-31.998;115.906;2024-02-15T15:29:03;27.00;99.90
5940;DHT22;2995;-31.998;115.906;2024-02-15T15:31:36;27.00;99.90
5940;DHT22;2995;-31.998;115.906;2024-02-15T15:34:07;27.00;99.90
5940;DHT22;2995;-31.998;115.906;2024-02-15T15:36:39;26.70;99.90
5940;DHT22;2995;-31.998;115.906;2024-02-15T15:39:10;26.70;99.90
5940;DHT22;2995;-31.998;115.906;2024-02-15T15:41:43;26.70;99.90
5940;DHT22;2995;-31.998;115.906;2024-02-15T15:44:15;26.80;99.90
5940;DHT22;2995;-31.998;115.906;2024-02-15T15:46:48;27.00;99.90
5940;DHT22;2995;-31.998;115.906;2024-02-15T15:49:19;26.90;99.90
5940;DHT22;2995;-31.998;115.906;2024-02-15T15:51:52;26.80;99.90
5940;DHT22;2995;-31.998;115.906;2024-02-15T15:54:23;26.90;99.90
5940;DHT22;2995;-31.998;115.906;2024-02-15T15:56:54;27.00;99.90